Time;durP1;ratioP1;P1;durP2;ratioP2;P2;SDS_P1;SDS_P2;PMS_P1;PMS_P2;Temp;Humidity;BMP_temperature;BMP_pressure;BME280_temperature;BME280_humidity;BME280_pressure;Samples;Min_cycle;Max_cycle;Signal;HPM_P1;HPM_P2
2021/04/07 00:01:09;;;;;;;27.60;15.70;;;;;;;0.35;54.65;98839.73;115254;1200;103508;-77
2021/04/07 00:03:36;;;;;;;35.00;17.10;;;;;;;0.32;55.22;98850.04;115266;1199;103136;-77
2021/04/07 00:06:03;;;;;;;30.37;15.80;;;;;;;0.26;54.98;98845.84;115284;1196;103072;-76
2021/04/07 00:08:31;;;;;;;29.43;15.57;;;;;;;0.22;55.13;98851.89;115308;1196;103162;-76
2021/04/07 00:10:58;;;;;;;29.23;15.98;;;;;;;0.19;55.36;98851.94;115310;1198;103129;-76
2021/04/07 00:13:25;;;;;;;30.57;16.47;;;;;;;0.15;55.62;98845.13;115430;1196;103118;-76
2021/04/07 00:15:52;;;;;;;30.20;17.00;;;;;;;0.14;55.35;98848.56;115576;1197;103059;-77
2021/04/07 00:18:19;;;;;;;28.87;16.10;;;;;;;0.11;55.40;98853.73;115671;1196;103056;-77
2021/04/07 00:20:46;;;;;;;32.93;16.97;;;;;;;0.09;55.88;98858.03;115339;1199;103020;-77
2021/04/07 00:23:13;;;;;;;31.10;17.03;;;;;;;0.07;56.46;98854.64;115243;1199;102998;-76
2021/04/07 00:25:42;;;;;;;34.35;17.30;;;;;;;0.04;56.00;98855.53;115506;1196;103030;-76
2021/04/07 00:28:10;;;;;;;30.57;16.70;;;;;;;0.03;56.09;98855.55;115353;1196;102995;-77
2021/04/07 00:30:38;;;;;;;34.13;17.30;;;;;;;-0.03;56.07;98853.89;115394;1199;103107;-77
2021/04/07 00:33:06;;;;;;;31.53;16.03;;;;;;;-0.07;56.40;98850.52;115558;1196;102999;-77
2021/04/07 00:35:35;;;;;;;33.40;17.53;;;;;;;-0.09;56.21;98854.82;115316;1197;103140;-77
2021/04/07 00:38:02;;;;;;;30.13;16.20;;;;;;;-0.12;56.37;98844.61;115349;1196;103075;-76
2021/04/07 00:40:29;;;;;;;35.00;18.53;;;;;;;-0.14;56.54;98848.91;115313;1199;103028;-77
2021/04/07 00:42:56;;;;;;;32.68;16.88;;;;;;;-0.16;57.08;98848.08;115628;1196;103037;-77
2021/04/07 00:45:23;;;;;;;31.67;16.03;;;;;;;-0.21;57.01;98837.02;115454;1199;103095;-77
2021/04/07 00:47:52;;;;;;;31.57;16.80;;;;;;;-0.25;57.19;98848.17;115442;1198;103249;-77
2021/04/07 00:50:22;;;;;;;31.67;16.73;;;;;;;-0.27;57.98;98838.80;115563;1196;102995;-78
2021/04/07 00:52:50;;;;;;;30.77;16.47;;;;;;;-0.28;57.57;98847.36;115335;1197;102992;-77
2021/04/07 00:55:29;;;;;;;31.33;15.90;;;;;;;-0.31;57.65;98840.56;115625;1200;103123;-77
2021/04/07 00:57:56;;;;;;;;;;;;;;;-0.35;57.74;98846.59;115369;1205;103137;-77
2021/04/07 01:00:24;;;;;;;31.23;15.50;;;;;;;-0.39;58.05;98837.22;115280;1199;102816;-77
2021/04/07 01:02:57;;;;;;;33.97;16.90;;;;;;;-0.43;58.22;98838.97;115576;1196;103014;-77
2021/04/07 01:05:25;;;;;;;32.80;16.93;;;;;;;-0.44;57.67;98844.11;115313;1199;102982;-77
2021/04/07 01:07:57;;;;;;;34.83;15.93;;;;;;;-0.47;58.35;98844.98;115566;1197;103021;-76
2021/04/07 01:10:26;;;;;;;33.23;16.60;;;;;;;-0.48;58.67;98845.86;115343;1196;103188;-78
2021/04/07 01:12:54;;;;;;;29.33;15.73;;;;;;;-0.49;58.83;98853.56;115517;1197;103152;-77
2021/04/07 01:15:22;;;;;;;28.67;15.80;;;;;;;-0.52;59.34;98849.32;115389;1198;102977;-77
2021/04/07 01:17:50;;;;;;;33.77;16.67;;;;;;;-0.56;58.82;98852.75;115322;1197;103123;-76
2021/04/07 01:20:20;;;;;;;30.97;14.67;;;;;;;-0.58;59.06;98851.08;115308;1196;102015;-77
2021/04/07 01:22:51;;;;;;;28.23;15.03;;;;;;;-0.63;59.49;98851.97;115343;1196;103035;-77
2021/04/07 01:25:20;;;;;;;30.63;15.87;;;;;;;-0.65;59.85;98853.70;115274;1199;103146;-76
2021/04/07 01:27:48;;;;;;;31.53;16.17;;;;;;;-0.69;59.81;98861.44;115515;1199;103053;-76
2021/04/07 01:30:17;;;;;;;26.83;15.70;;;;;;;-0.70;59.45;98854.62;115587;1196;103037;-77
2021/04/07 01:32:45;;;;;;;30.87;15.63;;;;;;;-0.72;59.69;98859.75;115573;1199;103054;-77
2021/04/07 01:35:16;;;;;;;27.97;16.20;;;;;;;-0.75;60.56;98859.75;115593;1198;102982;-77
2021/04/07 01:37:43;;;;;;;30.60;16.13;;;;;;;-0.76;60.73;98858.06;115310;1199;102957;-77
2021/04/07 01:40:13;;;;;;;36.80;17.37;;;;;;;-0.79;60.43;98859.80;115535;1199;103129;-77
2021/04/07 01:42:42;;;;;;;32.03;17.03;;;;;;;-0.81;60.51;98859.82;115344;1198;103070;-76
2021/04/07 01:45:11;;;;;;;35.47;18.23;;;;;;;-0.82;60.33;98862.39;115398;1196;102986;-77
2021/04/07 01:47:38;;;;;;;30.63;15.50;;;;;;;-0.85;60.74;98865.83;115277;1196;103034;-76
2021/04/07 01:50:08;;;;;;;30.30;16.50;;;;;;;-0.88;61.10;98865.87;115429;1199;102986;-77
2021/04/07 01:52:35;;;;;;;36.20;17.70;;;;;;;-0.91;61.24;98868.42;115341;1199;103021;-77
2021/04/07 01:55:04;;;;;;;31.03;16.53;;;;;;;-0.95;60.84;98864.20;115359;1196;103188;-78
2021/04/07 01:57:31;;;;;;;32.03;16.03;;;;;;;-0.97;61.22;98881.28;115518;1199;103066;-77
2021/04/07 01:59:58;;;;;;;32.80;17.10;;;;;;;-1.00;61.68;98871.92;115504;1196;103484;-77
2021/04/07 02:02:25;;;;;;;31.50;16.07;;;;;;;-1.01;62.01;98874.49;115285;1200;103025;-78
2021/04/07 02:04:52;;;;;;;31.90;17.17;;;;;;;-1.02;61.57;98881.33;115300;1199;103041;-77
2021/04/07 02:07:19;;;;;;;33.17;17.30;;;;;;;-1.01;61.79;98882.17;115578;1196;102995;-77
2021/04/07 02:09:47;;;;;;;32.53;16.30;;;;;;;-1.02;62.51;98883.03;115544;1196;102986;-76
2021/04/07 02:12:14;;;;;;;30.33;15.83;;;;;;;-1.06;62.61;98883.92;115549;1200;102999;-77
2021/04/07 02:14:41;;;;;;;31.58;16.48;;;;;;;-1.09;62.59;98881.36;115370;1199;103099;-76
2021/04/07 02:17:08;;;;;;;28.93;16.23;;;;;;;-1.11;62.56;98880.52;115517;1196;103008;-77
2021/04/07 02:19:36;;;;;;;30.83;16.17;;;;;;;-1.13;62.75;98885.66;115295;1199;103092;-78
2021/04/07 02:22:10;;;;;;;29.90;16.30;;;;;;;-1.13;62.74;98879.69;115285;1200;103117;-76
2021/04/07 02:24:41;;;;;;;32.40;15.87;;;;;;;-1.14;63.52;98890.78;115272;1199;103005;-76
2021/04/07 02:27:17;;;;;;;29.43;15.37;;;;;;;-1.16;63.50;98890.80;115344;1199;102852;-76
2021/04/07 02:29:47;;;;;;;29.80;15.45;;;;;;;-1.16;63.32;98895.06;115322;1200;103121;-77
2021/04/07 02:32:14;;;;;;;27.33;15.23;;;;;;;-1.19;63.87;98895.94;115310;1198;103031;-77
2021/04/07 02:34:42;;;;;;;32.17;17.03;;;;;;;-1.20;63.43;98889.13;115283;1200;103014;-77
2021/04/07 02:37:11;;;;;;;27.13;14.73;;;;;;;-1.20;63.96;98888.28;115307;1199;103117;-77
2021/04/07 02:39:39;;;;;;;30.40;16.15;;;;;;;-1.19;64.33;98889.98;115578;1200;103104;-76
2021/04/07 02:42:06;;;;;;;32.60;17.10;;;;;;;-1.21;63.92;98892.55;115332;1199;103033;-77
2021/04/07 02:44:34;;;;;;;33.85;17.35;;;;;;;-1.22;63.84;98890.84;115279;1199;102961;-77
2021/04/07 02:47:01;;;;;;;30.97;16.93;;;;;;;-1.22;63.87;98889.14;115569;1198;103410;-76
2021/04/07 02:49:29;;;;;;;30.77;16.27;;;;;;;-1.21;64.29;98895.11;115257;1198;103018;-76
2021/04/07 02:51:56;;;;;;;29.07;16.20;;;;;;;-1.24;64.77;98895.98;115571;1195;103008;-76
2021/04/07 02:54:23;;;;;;;31.07;17.00;;;;;;;-1.25;64.35;98907.08;115267;1199;103046;-76
2021/04/07 02:56:51;;;;;;;28.47;15.33;;;;;;;-1.28;64.40;98901.95;115538;1196;103063;-77
2021/04/07 02:59:18;;;;;;;29.75;16.10;;;;;;;-1.28;64.75;98901.95;115315;1196;103152;-77
2021/04/07 03:01:45;;;;;;;31.60;15.70;;;;;;;-1.31;64.76;98907.09;115323;1199;102924;-76
2021/04/07 03:04:13;;;;;;;31.97;16.07;;;;;;;-1.32;65.42;98902.83;115326;1196;103149;-76
2021/04/07 03:06:41;;;;;;;29.90;15.83;;;;;;;-1.32;65.44;98904.54;115292;1199;103105;-77
2021/04/07 03:09:08;;;;;;;28.43;15.50;;;;;;;-1.33;65.09;98906.25;115546;1196;103017;-77
2021/04/07 03:11:35;;;;;;;27.97;15.47;;;;;;;-1.35;65.08;98913.09;115564;1196;103018;-76
2021/04/07 03:14:04;;;;;;;29.20;16.33;;;;;;;-1.34;65.84;98913.94;115289;1199;103258;-77
2021/04/07 03:16:32;;;;;;;29.40;17.20;;;;;;;-1.36;66.04;98921.62;115328;1198;102996;-77
2021/04/07 03:19:00;;;;;;;32.67;18.57;;;;;;;-1.35;66.31;98914.80;115311;1200;103688;-77
2021/04/07 03:21:27;;;;;;;39.87;23.90;;;;;;;-1.36;66.38;98913.09;115368;1199;103063;-78
2021/04/07 03:23:54;;;;;;;36.83;23.57;;;;;;;-1.38;65.95;98915.67;115298;1199;102989;-78
2021/04/07 03:26:22;;;;;;;44.03;26.23;;;;;;;-1.40;65.94;98917.39;115233;1198;103168;-78
2021/04/07 03:28:49;;;;;;;41.10;25.53;;;;;;;-1.42;65.98;98919.11;115290;1199;102995;-77
2021/04/07 03:31:16;;;;;;;47.27;29.80;;;;;;;-1.42;66.09;98921.66;115541;1197;103101;-78
2021/04/07 03:33:43;;;;;;;42.20;25.87;;;;;;;-1.41;66.34;98920.80;115627;1196;103069;-77
2021/04/07 03:36:10;;;;;;;38.97;24.77;;;;;;;-1.41;67.09;98917.40;115315;1200;103070;-78
2021/04/07 03:38:38;;;;;;;38.13;22.33;;;;;;;-1.44;66.70;98928.47;115287;1196;103087;-77
2021/04/07 03:41:06;;;;;;;37.63;20.73;;;;;;;-1.45;66.98;98923.36;115548;1196;103187;-77
2021/04/07 03:43:33;;;;;;;32.40;18.80;;;;;;;-1.47;66.65;98923.38;115578;1196;103044;-77
2021/04/07 03:46:00;;;;;;;30.67;18.13;;;;;;;-1.50;66.92;98927.66;115480;1196;102183;-78
2021/04/07 03:48:30;;;;;;;33.63;18.00;;;;;;;-1.52;66.89;98938.75;115286;1200;103120;-77
2021/04/07 03:50:59;;;;;;;32.27;17.67;;;;;;;-1.51;66.95;98934.48;115256;1199;103146;-77
2021/04/07 03:53:27;;;;;;;28.27;16.03;;;;;;;-1.52;67.31;98937.89;115334;1199;103056;-76
2021/04/07 03:55:56;;;;;;;29.85;16.65;;;;;;;-1.53;67.91;98942.16;115317;1200;103433;-77
2021/04/07 03:58:24;;;;;;;31.53;16.20;;;;;;;-1.54;67.91;98940.46;115312;1199;103200;-77
2021/04/07 04:00:53;;;;;;;27.90;15.70;;;;;;;-1.53;67.46;98946.42;115305;1200;103516;-77
2021/04/07 04:03:21;;;;;;;31.40;16.87;;;;;;;-1.53;67.35;98941.31;115284;1200;103119;-77
2021/04/07 04:05:49;;;;;;;30.37;15.87;;;;;;;-1.50;68.05;98946.41;115433;1199;103043;-76
2021/04/07 04:08:18;;;;;;;27.03;14.60;;;;;;;-1.45;68.26;98942.11;115232;1199;104198;-76
2021/04/07 04:10:45;;;;;;;32.03;16.37;;;;;;;-1.44;67.37;98955.75;115328;1199;103089;-76
2021/04/07 04:13:13;;;;;;;31.55;15.65;;;;;;;-1.40;68.10;98960.86;115276;1196;103673;-77
2021/04/07 04:15:41;;;;;;;27.33;15.33;;;;;;;-1.36;67.92;98965.09;115507;1196;103152;-76
2021/04/07 04:18:09;;;;;;;27.50;15.90;;;;;;;-1.29;68.06;98965.91;115567;1199;103025;-77
2021/04/07 04:20:36;;;;;;;25.17;14.07;;;;;;;-1.25;68.42;98968.47;115592;1196;103005;-76
2021/04/07 04:23:05;;;;;;;26.97;14.33;;;;;;;-1.22;68.22;98960.77;115298;1199;103031;-76
2021/04/07 04:25:32;;;;;;;28.53;15.57;;;;;;;-1.14;68.24;98962.42;115539;1199;103420;-77
2021/04/07 04:28:00;;;;;;;27.70;15.43;;;;;;;-1.04;67.92;98970.05;115361;1196;103028;-77
2021/04/07 04:30:27;;;;;;;27.33;15.43;;;;;;;-0.95;68.07;98967.41;115290;1199;103036;-77
2021/04/07 04:32:57;;;;;;;24.10;14.20;;;;;;;-0.88;67.73;98967.40;115307;1200;103073;-77
2021/04/07 04:35:24;;;;;;;26.83;14.20;;;;;;;-0.83;68.05;98976.73;115345;1199;102982;-76
2021/04/07 04:37:52;;;;;;;25.57;14.40;;;;;;;-0.80;67.55;98979.27;115459;1199;103005;-78
2021/04/07 04:40:19;;;;;;;23.93;13.40;;;;;;;-0.76;67.48;98975.82;115549;1200;103088;-77
2021/04/07 04:42:47;;;;;;;27.07;15.43;;;;;;;-0.72;67.91;98980.09;115312;1196;103044;-77
2021/04/07 04:45:17;;;;;;;25.85;15.10;;;;;;;-0.67;67.21;98975.77;115357;1200;103011;-77
2021/04/07 04:47:44;;;;;;;23.40;14.10;;;;;;;-0.61;67.39;98975.72;115348;1196;103017;-78
2021/04/07 04:50:12;;;;;;;27.17;14.97;;;;;;;-0.53;68.01;98967.14;115291;1199;102998;-76
2021/04/07 04:52:39;;;;;;;27.20;15.87;;;;;;;-0.49;67.30;98973.93;115317;1197;103037;-77
2021/04/07 04:55:09;;;;;;;24.10;13.50;;;;;;;-0.45;67.82;98967.91;115300;1196;103009;-77
2021/04/07 04:57:37;;;;;;;25.17;14.70;;;;;;;-0.44;67.62;98978.14;115330;1200;103086;-77
2021/04/07 05:00:06;;;;;;;24.93;14.63;;;;;;;-0.42;67.39;98973.86;115408;1196;103149;-77
2021/04/07 05:02:33;;;;;;;23.37;12.90;;;;;;;-0.37;67.81;98976.37;115332;1199;103040;-77
2021/04/07 05:05:00;;;;;;;23.63;14.30;;;;;;;-0.33;67.62;98975.50;115407;1196;103092;-77
2021/04/07 05:07:28;;;;;;;22.93;13.80;;;;;;;-0.24;67.76;98974.56;115355;1199;103040;-76
2021/04/07 05:09:55;;;;;;;23.17;14.50;;;;;;;-0.17;67.25;98974.51;115506;1199;103076;-77
2021/04/07 05:12:22;;;;;;;24.63;14.27;;;;;;;-0.08;67.12;98983.80;115299;1200;102967;-76
2021/04/07 05:14:50;;;;;;;24.97;14.37;;;;;;;-0.03;66.77;98982.04;115536;1199;103239;-77
2021/04/07 05:17:19;;;;;;;23.93;13.37;;;;;;;0.02;67.42;98979.45;115556;1196;103040;-77
2021/04/07 05:19:46;;;;;;;25.13;13.33;;;;;;;0.04;67.39;98991.39;115329;1197;103142;-77
2021/04/07 05:22:17;;;;;;;19.70;10.87;;;;;;;0.09;67.16;98991.33;115295;1199;103075;-76
2021/04/07 05:24:44;;;;;;;21.87;13.50;;;;;;;0.13;67.05;98987.87;115316;1199;103047;-77
2021/04/07 05:27:12;;;;;;;21.83;12.97;;;;;;;0.17;66.99;98997.22;115269;1199;103088;-77
2021/04/07 05:29:39;;;;;;;23.73;13.33;;;;;;;0.19;66.54;98988.67;115308;1199;103214;-77
2021/04/07 05:32:08;;;;;;;25.37;13.37;;;;;;;0.24;67.05;98991.18;115570;1196;103130;-77
2021/04/07 05:34:35;;;;;;;24.37;14.60;;;;;;;0.24;67.09;98988.62;115452;1197;102982;-77
2021/04/07 05:37:03;;;;;;;22.47;14.00;;;;;;;0.33;67.34;98996.19;115337;1197;103066;-77
2021/04/07 05:39:30;;;;;;;22.03;13.87;;;;;;;0.39;67.04;98990.17;115300;1200;103114;-77
2021/04/07 05:41:57;;;;;;;18.33;12.53;;;;;;;0.41;66.69;98999.54;115516;1196;103078;-77
2021/04/07 05:44:24;;;;;;;24.33;14.03;;;;;;;0.43;67.20;99002.94;115537;1197;103069;-77
2021/04/07 05:46:52;;;;;;;23.40;13.13;;;;;;;0.52;67.39;99005.38;115584;1199;103008;-76
2021/04/07 05:49:19;;;;;;;21.87;14.17;;;;;;;0.55;67.15;98992.55;115304;1199;102753;-77
2021/04/07 05:51:46;;;;;;;22.35;13.88;;;;;;;0.60;66.34;99001.02;115292;1197;103095;-76
2021/04/07 05:54:13;;;;;;;22.33;14.63;;;;;;;0.63;66.15;98999.28;115266;1199;103087;-77
2021/04/07 05:56:40;;;;;;;25.73;15.60;;;;;;;0.64;66.53;99000.98;115363;1200;103095;-77
2021/04/07 05:59:07;;;;;;;20.60;13.55;;;;;;;0.64;66.76;98985.58;115633;1199;103030;-77
2021/04/07 06:01:34;;;;;;;24.15;14.65;;;;;;;0.60;66.03;99003.59;115300;1200;103085;-77
2021/04/07 06:04:01;;;;;;;22.13;13.80;;;;;;;0.66;66.18;99000.09;115445;1196;103084;-77
2021/04/07 06:06:29;;;;;;;26.73;14.90;;;;;;;0.82;66.53;99005.88;115538;1199;103161;-77
2021/04/07 06:08:57;;;;;;;26.98;15.70;;;;;;;0.89;66.01;99007.49;115355;1196;103145;-76
2021/04/07 06:11:24;;;;;;;23.87;14.63;;;;;;;0.90;66.39;99004.09;115382;1196;103015;-77
2021/04/07 06:13:51;;;;;;;20.40;14.27;;;;;;;0.85;66.35;99000.70;115564;1199;102976;-77
2021/04/07 06:16:18;;;;;;;21.55;13.83;;;;;;;0.76;65.46;99011.11;115476;1200;103024;-77
2021/04/07 06:18:46;;;;;;;21.30;13.85;;;;;;;0.73;66.09;99013.72;115292;1198;103114;-77
2021/04/07 06:21:14;;;;;;;21.30;14.43;;;;;;;0.70;66.11;99008.59;115515;1200;103009;-77
2021/04/07 06:23:41;;;;;;;24.00;15.30;;;;;;;0.69;66.52;99010.31;115350;1199;103050;-77
2021/04/07 06:26:08;;;;;;;20.57;14.13;;;;;;;0.64;66.44;99021.51;115440;1199;103028;-77
2021/04/07 06:28:36;;;;;;;24.45;15.15;;;;;;;0.60;66.07;99030.97;115545;1199;103136;-77
2021/04/07 06:31:04;;;;;;;21.57;14.50;;;;;;;0.59;66.43;99024.13;115619;1199;103015;-77
2021/04/07 06:33:34;;;;;;;22.33;15.00;;;;;;;0.58;66.58;99027.57;115303;1200;102988;-77
2021/04/07 06:36:03;;;;;;;22.37;15.50;;;;;;;0.59;66.61;99032.68;115320;1199;101943;-77
2021/04/07 06:38:32;;;;;;;22.90;14.87;;;;;;;0.62;66.84;99033.51;115296;1199;103066;-76
2021/04/07 06:41:01;;;;;;;22.10;15.23;;;;;;;0.60;66.68;99042.08;115402;1198;103184;-77
2021/04/07 06:43:30;;;;;;;20.87;15.07;;;;;;;0.56;66.86;99034.44;115390;1199;103085;-77
2021/04/07 06:45:58;;;;;;;22.10;14.15;;;;;;;0.53;66.77;99047.27;115295;1200;103050;-77
2021/04/07 06:48:29;;;;;;;22.23;15.37;;;;;;;0.50;66.42;99045.59;115322;1199;103085;-77
2021/04/07 06:50:57;;;;;;;19.03;13.73;;;;;;;0.48;66.22;99051.61;115352;1198;103895;-77
2021/04/07 06:53:27;;;;;;;18.77;12.83;;;;;;;0.45;66.79;99051.65;115242;1199;103178;-77
2021/04/07 06:55:55;;;;;;;18.53;12.43;;;;;;;0.45;67.31;99056.78;115598;1196;102989;-77
2021/04/07 06:58:22;;;;;;;19.77;12.43;;;;;;;0.45;67.08;99051.65;115373;1199;102998;-77
2021/04/07 07:00:50;;;;;;;18.30;12.23;;;;;;;0.50;67.16;99052.44;115311;1199;103162;-78
2021/04/07 07:03:18;;;;;;;20.30;12.80;;;;;;;0.54;67.00;99049.85;115267;1200;103047;-77
2021/04/07 07:05:50;;;;;;;19.33;12.33;;;;;;;0.53;66.41;99060.95;115474;1196;102813;-77
2021/04/07 07:08:37;;;;;;;18.03;11.57;;;;;;;0.53;67.00;99060.09;115356;1196;103114;-77
2021/04/07 07:11:14;;;;;;;18.75;13.30;;;;;;;0.53;66.63;99071.21;115278;1199;105245;-77
2021/04/07 07:13:41;;;;;;;20.25;13.60;;;;;;;0.51;66.31;99072.09;115297;1198;103162;-77
2021/04/07 07:16:11;;;;;;;18.10;13.47;;;;;;;0.49;66.59;99082.38;115318;1196;103025;-77
2021/04/07 07:18:43;;;;;;;17.30;11.10;;;;;;;0.49;67.05;99074.68;115265;1199;103258;-77
2021/04/07 07:21:16;;;;;;;21.35;12.80;;;;;;;0.50;67.28;99084.08;115312;1198;103025;-77
2021/04/07 07:23:49;;;;;;;18.83;11.97;;;;;;;0.50;67.12;99091.77;115515;1200;102922;-77
2021/04/07 07:26:19;;;;;;;15.20;10.17;;;;;;;0.53;67.01;99086.60;115530;1196;102980;-77
2021/04/07 07:28:58;;;;;;;19.77;11.60;;;;;;;0.53;67.08;99094.30;115348;1196;103130;-76
2021/04/07 07:31:31;;;;;;;18.20;11.60;;;;;;;0.52;66.60;99096.88;115552;1200;103011;-77
2021/04/07 07:34:02;;;;;;;16.43;11.30;;;;;;;0.52;66.65;99090.03;115375;1198;102999;-76
2021/04/07 07:36:34;;;;;;;15.30;10.53;;;;;;;0.55;67.00;99092.59;115281;1198;103028;-77
2021/04/07 07:39:05;;;;;;;16.37;11.33;;;;;;;0.61;67.10;99091.67;115310;1199;103083;-77
2021/04/07 07:41:35;;;;;;;19.10;12.60;;;;;;;0.64;66.96;99090.78;115340;1200;103095;-77
2021/04/07 07:44:20;;;;;;;16.73;11.40;;;;;;;0.66;66.73;99101.88;115359;1196;103130;-78
2021/04/07 07:46:55;;;;;;;17.00;11.40;;;;;;;0.68;67.08;99105.27;115373;1199;102960;-77
2021/04/07 07:49:23;;;;;;;17.30;11.00;;;;;;;0.70;66.76;99108.67;115360;1199;103030;-78
2021/04/07 07:51:51;;;;;;;16.50;11.00;;;;;;;0.69;66.77;99101.84;115591;1196;103019;-78
2021/04/07 07:54:24;;;;;;;16.33;10.63;;;;;;;0.74;66.97;99105.23;115317;1198;103034;-77
2021/04/07 07:56:53;;;;;;;15.43;10.53;;;;;;;0.77;66.45;99111.17;115321;1196;103031;-79
2021/04/07 07:59:33;;;;;;;16.27;9.93;;;;;;;0.81;66.96;99106.85;115385;1199;103140;-78
2021/04/07 08:02:01;;;;;;;14.60;10.17;;;;;;;0.87;66.15;99101.64;115335;1196;103213;-78
2021/04/07 08:04:29;;;;;;;13.50;9.13;;;;;;;0.90;66.06;99099.91;115385;1198;103107;-78
2021/04/07 08:06:57;;;;;;;14.97;9.80;;;;;;;0.94;66.45;99108.42;115366;1196;102074;-78
2021/04/07 08:09:25;;;;;;;15.13;8.90;;;;;;;1.02;65.82;99111.73;115291;1200;103184;-78
2021/04/07 08:11:53;;;;;;;15.93;9.50;;;;;;;1.09;66.39;99122.80;115338;1199;103084;-78
2021/04/07 08:14:21;;;;;;;15.20;9.70;;;;;;;1.17;65.83;99118.41;115272;1199;103156;-77
2021/04/07 08:16:49;;;;;;;18.07;10.10;;;;;;;1.25;65.89;99115.73;115542;1200;102967;-77
2021/04/07 08:19:16;;;;;;;18.17;9.77;;;;;;;1.33;65.34;99134.48;115323;1198;103082;-77
2021/04/07 08:21:46;;;;;;;14.83;9.30;;;;;;;1.45;64.93;99111.21;115552;1198;103015;-79
2021/04/07 08:24:14;;;;;;;14.07;9.00;;;;;;;1.58;65.30;99122.15;115512;1197;103050;-78
2021/04/07 08:26:44;;;;;;;12.30;8.50;;;;;;;1.69;65.05;99126.28;115394;1199;103105;-77
2021/04/07 08:29:11;;;;;;;13.80;9.33;;;;;;;1.82;64.27;99129.53;115575;1196;103247;-77
2021/04/07 08:31:39;;;;;;;11.97;8.80;;;;;;;1.93;64.38;99124.21;115366;1200;103252;-77
2021/04/07 08:34:11;;;;;;;12.50;8.70;;;;;;;2.04;64.11;99130.05;115391;1196;103035;-77
2021/04/07 08:36:41;;;;;;;13.00;8.77;;;;;;;2.19;63.85;99129.81;115391;1200;102857;-77
2021/04/07 08:39:12;;;;;;;12.73;9.10;;;;;;;2.30;63.83;99135.61;115296;1199;103022;-77
2021/04/07 08:41:40;;;;;;;12.90;8.93;;;;;;;2.31;62.86;99132.16;115368;1198;102957;-78
2021/04/07 08:44:16;;;;;;;11.57;8.90;;;;;;;2.31;62.63;99131.31;115385;1199;102986;-78
2021/04/07 08:46:53;;;;;;;12.33;7.83;;;;;;;2.31;62.38;99129.59;115310;1199;103056;-77
2021/04/07 08:49:37;;;;;;;11.00;7.80;;;;;;;2.35;62.57;99138.98;115374;1196;103008;-77
2021/04/07 08:52:23;;;;;;;11.23;8.17;;;;;;;2.37;62.53;99142.38;115357;1196;103024;-77
2021/04/07 08:54:56;;;;;;;11.07;8.33;;;;;;;2.42;62.67;99145.71;115404;1199;101221;-77
2021/04/07 08:57:29;;;;;;;14.43;9.07;;;;;;;2.47;62.25;99152.50;115392;1199;103251;-78
2021/04/07 08:59:58;;;;;;;12.97;8.70;;;;;;;2.44;62.79;99150.83;115468;1199;103056;-78
2021/04/07 09:02:27;;;;;;;16.25;8.90;;;;;;;2.39;62.43;99145.77;115378;1197;102999;-79
2021/04/07 09:05:02;;;;;;;13.27;9.53;;;;;;;2.35;62.81;99156.99;115464;1196;103325;-78
2021/04/07 09:07:41;;;;;;;15.60;10.00;;;;;;;2.27;62.58;99155.41;115421;1198;103191;-78
2021/04/07 09:10:14;;;;;;;16.33;10.43;;;;;;;2.21;62.75;99145.22;115451;1196;101974;-78
2021/04/07 09:12:50;;;;;;;14.20;9.47;;;;;;;2.15;62.49;99148.72;115313;1199;103084;-79
2021/04/07 09:15:23;;;;;;;12.33;9.37;;;;;;;2.13;62.33;99150.47;115639;1198;103030;-79
2021/04/07 09:17:54;;;;;;;13.60;8.40;;;;;;;2.24;62.74;99148.59;115398;1199;102976;-78
2021/04/07 09:20:46;;;;;;;10.80;7.47;;;;;;;2.72;62.40;99151.22;115432;1196;103047;-78
2021/04/07 09:23:24;;;;;;;12.67;7.87;;;;;;;3.27;61.42;99139.86;115496;1196;102992;-79
2021/04/07 09:25:58;;;;;;;10.53;7.50;;;;;;;3.43;60.46;99148.98;115362;1200;103161;-78
2021/04/07 09:28:35;;;;;;;11.57;7.60;;;;;;;3.52;60.59;99143.61;115369;1199;103025;-78
2021/04/07 09:31:25;;;;;;;10.33;7.80;;;;;;;3.53;59.92;99142.73;115598;1200;105671;-78
2021/04/07 09:33:54;;;;;;;9.77;7.50;;;;;;;3.50;59.88;99140.22;115417;1199;102983;-78
2021/04/07 09:36:33;;;;;;;11.03;7.70;;;;;;;4.14;60.49;99143.95;115388;1196;103066;-79
2021/04/07 09:39:06;;;;;;;11.37;6.90;;;;;;;5.04;59.12;99138.22;115632;1196;102800;-78
2021/04/07 09:41:35;;;;;;;10.75;6.55;;;;;;;6.00;58.35;99132.82;115334;1199;101842;-78
2021/04/07 09:44:06;;;;;;;8.70;6.07;;;;;;;6.74;56.31;99131.25;115362;1196;103101;-78
2021/04/07 09:46:35;;;;;;;8.20;6.10;;;;;;;7.19;54.87;99134.84;115360;1196;103004;-78
2021/04/07 09:49:12;;;;;;;8.17;5.77;;;;;;;7.40;52.79;99124.58;115328;1199;103059;-77
2021/04/07 09:51:49;;;;;;;7.37;5.37;;;;;;;7.33;52.25;99126.53;115337;1198;103123;-80
2021/04/07 09:54:24;;;;;;;;;;;;;;;7.18;51.58;99130.55;115430;1204;102992;-80
2021/04/07 09:57:03;;;;;;;9.07;5.80;;;;;;;6.95;52.03;99125.32;115731;1199;103187;-80
2021/04/07 09:59:36;;;;;;;9.20;6.37;;;;;;;6.88;52.29;99131.63;115547;1199;103025;-80
2021/04/07 10:02:07;;;;;;;8.00;5.70;;;;;;;7.00;51.71;99123.40;115547;1196;102982;-80
2021/04/07 10:04:38;;;;;;;10.17;6.43;;;;;;;7.09;51.45;99133.45;115501;1199;103150;-80
2021/04/07 10:07:10;;;;;;;8.33;5.83;;;;;;;7.34;52.12;99133.41;115615;1196;103053;-80
2021/04/07 10:09:38;;;;;;;9.07;6.07;;;;;;;7.61;51.21;99131.55;115566;1199;103030;-80
2021/04/07 10:12:09;;;;;;;9.47;6.20;;;;;;;7.76;50.46;99130.97;115544;1198;103691;-80
2021/04/07 10:14:38;;;;;;;8.20;6.27;;;;;;;7.58;49.98;99126.48;115565;1196;103011;-79
2021/04/07 10:17:13;;;;;;;9.27;6.10;;;;;;;7.50;50.13;99136.28;115544;1196;103017;-79
2021/04/07 10:19:41;;;;;;;8.20;5.93;;;;;;;7.18;49.53;99125.37;115779;1195;102992;-80
2021/04/07 10:22:17;;;;;;;9.37;6.23;;;;;;;7.09;50.50;99125.68;115604;1198;103001;-80
2021/04/07 10:24:47;;;;;;;8.10;5.50;;;;;;;7.04;49.99;99139.72;115683;1194;103002;-81
2021/04/07 10:27:22;;;;;;;9.30;6.60;;;;;;;6.88;50.21;99144.59;115649;1197;103111;-80
2021/04/07 10:30:01;;;;;;;7.87;5.67;;;;;;;6.61;50.17;99136.84;115748;1199;103169;-80
2021/04/07 10:32:28;;;;;;;8.73;5.40;;;;;;;6.35;50.52;99148.08;115745;1199;103140;-80
2021/04/07 10:35:00;;;;;;;7.57;6.00;;;;;;;6.11;50.93;99148.88;115580;1197;103001;-80
2021/04/07 10:37:28;;;;;;;7.50;5.53;;;;;;;5.83;51.07;99156.59;115807;1199;103091;-80
2021/04/07 10:39:55;;;;;;;8.33;5.67;;;;;;;5.60;51.60;99143.51;115560;1196;101409;-79
2021/04/07 10:42:22;;;;;;;10.20;5.45;;;;;;;5.51;51.84;99154.95;115776;1196;103015;-80
2021/04/07 10:45:04;;;;;;;7.47;5.07;;;;;;;5.60;51.79;99157.28;115600;1199;103044;-80
2021/04/07 10:47:37;;;;;;;5.97;4.43;;;;;;;6.09;50.83;99153.22;115661;1199;102980;-81
2021/04/07 10:50:08;;;;;;;7.27;4.73;;;;;;;6.67;50.05;99161.72;115564;1196;102982;-81
2021/04/07 10:52:37;;;;;;;7.90;4.90;;;;;;;7.14;48.94;99156.63;115576;1198;102007;-80
2021/04/07 10:55:11;;;;;;;7.00;4.57;;;;;;;7.38;48.89;99152.32;115519;1197;103030;-80
2021/04/07 10:57:47;;;;;;;6.20;4.20;;;;;;;7.34;47.39;99154.16;115592;1199;101800;-80
2021/04/07 11:00:32;;;;;;;9.30;4.87;;;;;;;7.31;47.72;99149.09;115612;1196;102842;-77
2021/04/07 11:02:59;;;;;;;6.73;4.10;;;;;;;7.58;47.81;99162.81;115328;1198;103133;-75
2021/04/07 11:05:41;;;;;;;6.23;4.03;;;;;;;7.60;47.30;99150.62;115319;1199;103035;-76
2021/04/07 11:08:10;;;;;;;6.87;4.30;;;;;;;7.57;46.77;99135.17;115499;1197;104609;-79
2021/04/07 11:10:43;;;;;;;6.17;4.27;;;;;;;7.44;47.36;99170.25;115474;1199;103034;-78
2021/04/07 11:13:13;;;;;;;8.27;4.47;;;;;;;7.28;47.43;99160.42;115270;1197;103002;-77
2021/04/07 11:15:41;;;;;;;5.43;4.20;;;;;;;7.03;47.73;99172.58;115361;1196;102989;-76
2021/04/07 11:18:09;;;;;;;7.37;5.30;;;;;;;6.82;48.52;99175.88;115379;1197;103050;-78
2021/04/07 11:20:43;;;;;;;7.77;5.27;;;;;;;6.60;49.00;99171.42;115555;1196;103261;-78